sensor_id;sensor_type;location;lat;lon;timestamp;temperature;humidity
21646;DHT22;10984;45.712;4.800;2023-05-31T00:02:13;19.30;1.00
21646;DHT22;10984;45.712;4.800;2023-05-31T00:04:39;19.10;1.00
21646;DHT22;10984;45.712;4.800;2023-05-31T00:07:05;19.10;1.00
21646;DHT22;10984;45.712;4.800;2023-05-31T00:09:31;18.90;1.00
21646;DHT22;10984;45.712;4.800;2023-05-31T00:11:57;18.90;1.00
21646;DHT22;10984;45.712;4.800;2023-05-31T00:14:23;18.80;1.00
21646;DHT22;10984;45.712;4.800;2023-05-31T00:16:49;18.80;1.00
21646;DHT22;10984;45.712;4.800;2023-05-31T00:19:15;18.80;1.00
21646;DHT22;10984;45.712;4.800;2023-05-31T00:21:42;18.60;1.00
21646;DHT22;10984;45.712;4.800;2023-05-31T00:24:08;18.50;1.00
21646;DHT22;10984;45.712;4.800;2023-05-31T00:26:33;18.40;1.00
21646;DHT22;10984;45.712;4.800;2023-05-31T00:28:59;18.40;1.00
21646;DHT22;10984;45.712;4.800;2023-05-31T00:31:24;18.20;1.00
21646;DHT22;10984;45.712;4.800;2023-05-31T00:33:50;18.20;1.00
21646;DHT22;10984;45.712;4.800;2023-05-31T00:36:16;18.10;1.00
21646;DHT22;10984;45.712;4.800;2023-05-31T00:38:42;18.00;1.00
21646;DHT22;10984;45.712;4.800;2023-05-31T00:41:09;18.00;1.00
21646;DHT22;10984;45.712;4.800;2023-05-31T00:43:35;17.90;1.00
21646;DHT22;10984;45.712;4.800;2023-05-31T00:46:01;17.80;1.00
21646;DHT22;10984;45.712;4.800;2023-05-31T00:48:27;17.60;1.00
21646;DHT22;10984;45.712;4.800;2023-05-31T00:50:53;17.60;1.00
21646;DHT22;10984;45.712;4.800;2023-05-31T00:53:20;17.60;1.00
21646;DHT22;10984;45.712;4.800;2023-05-31T00:55:48;17.50;1.00
21646;DHT22;10984;45.712;4.800;2023-05-31T00:58:15;17.50;1.00
21646;DHT22;10984;45.712;4.800;2023-05-31T01:00:41;17.40;1.00
21646;DHT22;10984;45.712;4.800;2023-05-31T01:03:07;17.40;1.00
21646;DHT22;10984;45.712;4.800;2023-05-31T01:05:34;17.40;1.00
21646;DHT22;10984;45.712;4.800;2023-05-31T01:08:00;17.30;1.00
21646;DHT22;10984;45.712;4.800;2023-05-31T01:10:27;17.30;1.00
21646;DHT22;10984;45.712;4.800;2023-05-31T01:18:50;17.20;1.00
21646;DHT22;10984;45.712;4.800;2023-05-31T01:21:25;17.30;1.00
21646;DHT22;10984;45.712;4.800;2023-05-31T01:27:00;17.20;1.00
21646;DHT22;10984;45.712;4.800;2023-05-31T01:29:29;17.30;1.00
21646;DHT22;10984;45.712;4.800;2023-05-31T01:31:57;17.20;1.00
21646;DHT22;10984;45.712;4.800;2023-05-31T01:35:00;17.20;1.00
21646;DHT22;10984;45.712;4.800;2023-05-31T01:37:26;17.10;1.00
21646;DHT22;10984;45.712;4.800;2023-05-31T01:39:52;17.00;1.00
21646;DHT22;10984;45.712;4.800;2023-05-31T01:42:20;17.00;1.00
21646;DHT22;10984;45.712;4.800;2023-05-31T01:44:46;17.00;1.00
21646;DHT22;10984;45.712;4.800;2023-05-31T01:47:14;16.90;1.00
21646;DHT22;10984;45.712;4.800;2023-05-31T01:49:41;16.90;1.00
21646;DHT22;10984;45.712;4.800;2023-05-31T01:52:12;16.80;1.00
21646;DHT22;10984;45.712;4.800;2023-05-31T01:54:38;16.70;1.00
21646;DHT22;10984;45.712;4.800;2023-05-31T01:57:04;16.70;1.00
21646;DHT22;10984;45.712;4.800;2023-05-31T01:59:33;16.70;1.00
21646;DHT22;10984;45.712;4.800;2023-05-31T02:02:00;16.70;1.00
21646;DHT22;10984;45.712;4.800;2023-05-31T02:04:26;16.70;1.00
21646;DHT22;10984;45.712;4.800;2023-05-31T02:06:52;16.70;1.00
21646;DHT22;10984;45.712;4.800;2023-05-31T02:09:20;16.70;1.00
21646;DHT22;10984;45.712;4.800;2023-05-31T02:11:45;16.60;1.00
21646;DHT22;10984;45.712;4.800;2023-05-31T02:14:11;16.60;1.00
21646;DHT22;10984;45.712;4.800;2023-05-31T02:16:37;16.50;1.00
21646;DHT22;10984;45.712;4.800;2023-05-31T02:19:02;16.50;1.00
21646;DHT22;10984;45.712;4.800;2023-05-31T02:21:28;16.50;1.00
21646;DHT22;10984;45.712;4.800;2023-05-31T02:23:54;16.50;1.00
21646;DHT22;10984;45.712;4.800;2023-05-31T02:26:20;16.40;1.00
21646;DHT22;10984;45.712;4.800;2023-05-31T02:28:47;16.30;1.00
21646;DHT22;10984;45.712;4.800;2023-05-31T02:31:12;16.20;1.00
21646;DHT22;10984;45.712;4.800;2023-05-31T02:33:40;16.20;1.00
21646;DHT22;10984;45.712;4.800;2023-05-31T02:36:07;16.20;1.00
21646;DHT22;10984;45.712;4.800;2023-05-31T02:38:33;16.10;1.00
21646;DHT22;10984;45.712;4.800;2023-05-31T02:40:59;16.10;1.00
21646;DHT22;10984;45.712;4.800;2023-05-31T02:43:24;16.10;1.00
21646;DHT22;10984;45.712;4.800;2023-05-31T02:45:50;16.20;1.00
21646;DHT22;10984;45.712;4.800;2023-05-31T02:48:16;16.20;1.00
21646;DHT22;10984;45.712;4.800;2023-05-31T02:50:42;16.10;2.20
21646;DHT22;10984;45.712;4.800;2023-05-31T02:53:07;16.10;1.00
21646;DHT22;10984;45.712;4.800;2023-05-31T02:55:33;16.10;2.50
21646;DHT22;10984;45.712;4.800;2023-05-31T02:57:59;16.00;1.00
21646;DHT22;10984;45.712;4.800;2023-05-31T03:00:25;15.90;1.00
21646;DHT22;10984;45.712;4.800;2023-05-31T03:03:09;15.90;5.70
21646;DHT22;10984;45.712;4.800;2023-05-31T03:05:35;15.90;8.60
21646;DHT22;10984;45.712;4.800;2023-05-31T03:08:01;15.80;11.80
21646;DHT22;10984;45.712;4.800;2023-05-31T03:10:27;15.80;13.00
21646;DHT22;10984;45.712;4.800;2023-05-31T03:12:52;15.80;12.70
21646;DHT22;10984;45.712;4.800;2023-05-31T03:15:18;15.90;3.20
21646;DHT22;10984;45.712;4.800;2023-05-31T03:17:44;15.90;2.40
21646;DHT22;10984;45.712;4.800;2023-05-31T03:20:10;15.90;5.20
21646;DHT22;10984;45.712;4.800;2023-05-31T03:22:36;15.80;12.60
21646;DHT22;10984;45.712;4.800;2023-05-31T03:25:03;15.80;18.60
21646;DHT22;10984;45.712;4.800;2023-05-31T03:27:30;15.80;12.80
21646;DHT22;10984;45.712;4.800;2023-05-31T03:29:55;15.80;11.10
21646;DHT22;10984;45.712;4.800;2023-05-31T03:32:21;15.80;5.00
21646;DHT22;10984;45.712;4.800;2023-05-31T03:34:47;15.90;3.90
21646;DHT22;10984;45.712;4.800;2023-05-31T03:37:12;15.90;7.80
21646;DHT22;10984;45.712;4.800;2023-05-31T03:39:38;15.80;4.40
21646;DHT22;10984;45.712;4.800;2023-05-31T03:42:04;15.80;7.20
21646;DHT22;10984;45.712;4.800;2023-05-31T03:44:30;15.60;16.00
21646;DHT22;10984;45.712;4.800;2023-05-31T03:46:57;15.50;18.50
21646;DHT22;10984;45.712;4.800;2023-05-31T03:49:23;15.50;25.90
21646;DHT22;10984;45.712;4.800;2023-05-31T03:51:49;15.40;26.00
21646;DHT22;10984;45.712;4.800;2023-05-31T03:54:15;15.40;30.70
21646;DHT22;10984;45.712;4.800;2023-05-31T03:56:40;15.40;36.70
21646;DHT22;10984;45.712;4.800;2023-05-31T03:59:06;15.30;40.20
21646;DHT22;10984;45.712;4.800;2023-05-31T04:01:32;15.20;46.10
21646;DHT22;10984;45.712;4.800;2023-05-31T04:03:58;15.20;50.00
21646;DHT22;10984;45.712;4.800;2023-05-31T04:06:23;15.20;50.20
21646;DHT22;10984;45.712;4.800;2023-05-31T04:08:49;15.30;47.20
21646;DHT22;10984;45.712;4.800;2023-05-31T04:11:15;15.40;35.90
21646;DHT22;10984;45.712;4.800;2023-05-31T04:13:40;15.50;25.70
21646;DHT22;10984;45.712;4.800;2023-05-31T04:16:06;15.60;18.70
21646;DHT22;10984;45.712;4.800;2023-05-31T04:18:32;15.60;18.20
21646;DHT22;10984;45.712;4.800;2023-05-31T04:20:57;15.70;16.00
21646;DHT22;10984;45.712;4.800;2023-05-31T04:23:23;15.70;21.90
21646;DHT22;10984;45.712;4.800;2023-05-31T04:25:48;15.70;19.10
21646;DHT22;10984;45.712;4.800;2023-05-31T04:28:14;15.80;18.90
21646;DHT22;10984;45.712;4.800;2023-05-31T04:30:40;15.90;16.20
21646;DHT22;10984;45.712;4.800;2023-05-31T04:33:06;16.00;9.10
21646;DHT22;10984;45.712;4.800;2023-05-31T04:35:32;16.30;1.00
21646;DHT22;10984;45.712;4.800;2023-05-31T04:37:59;16.60;1.00
21646;DHT22;10984;45.712;4.800;2023-05-31T04:40:28;17.00;1.00
21646;DHT22;10984;45.712;4.800;2023-05-31T04:42:58;17.50;1.00
21646;DHT22;10984;45.712;4.800;2023-05-31T04:45:26;18.10;1.00
21646;DHT22;10984;45.712;4.800;2023-05-31T04:47:52;18.80;1.00
21646;DHT22;10984;45.712;4.800;2023-05-31T04:50:18;19.70;1.00
21646;DHT22;10984;45.712;4.800;2023-05-31T04:52:44;20.50;1.00
21646;DHT22;10984;45.712;4.800;2023-05-31T04:55:10;21.30;1.00
21646;DHT22;10984;45.712;4.800;2023-05-31T04:57:35;22.00;1.00
21646;DHT22;10984;45.712;4.800;2023-05-31T05:00:01;22.70;1.00
21646;DHT22;10984;45.712;4.800;2023-05-31T05:02:33;23.20;1.00
21646;DHT22;10984;45.712;4.800;2023-05-31T05:04:59;23.90;1.00
21646;DHT22;10984;45.712;4.800;2023-05-31T05:07:25;24.50;1.00
21646;DHT22;10984;45.712;4.800;2023-05-31T05:09:50;25.20;1.00
21646;DHT22;10984;45.712;4.800;2023-05-31T05:12:16;25.70;1.00
21646;DHT22;10984;45.712;4.800;2023-05-31T05:14:42;26.30;1.00
21646;DHT22;10984;45.712;4.800;2023-05-31T05:17:07;26.70;1.00
21646;DHT22;10984;45.712;4.800;2023-05-31T05:19:33;27.10;1.00
21646;DHT22;10984;45.712;4.800;2023-05-31T05:21:58;27.40;1.00
21646;DHT22;10984;45.712;4.800;2023-05-31T05:24:24;27.70;1.00
21646;DHT22;10984;45.712;4.800;2023-05-31T05:26:51;28.10;1.00
21646;DHT22;10984;45.712;4.800;2023-05-31T05:29:17;28.40;1.00
21646;DHT22;10984;45.712;4.800;2023-05-31T05:31:43;28.60;1.00
21646;DHT22;10984;45.712;4.800;2023-05-31T05:34:08;28.70;1.00
21646;DHT22;10984;45.712;4.800;2023-05-31T05:36:35;28.80;1.00
21646;DHT22;10984;45.712;4.800;2023-05-31T05:39:02;29.30;1.00
21646;DHT22;10984;45.712;4.800;2023-05-31T05:41:31;28.90;1.00
21646;DHT22;10984;45.712;4.800;2023-05-31T05:43:57;29.10;1.00
21646;DHT22;10984;45.712;4.800;2023-05-31T05:46:23;29.70;1.00
21646;DHT22;10984;45.712;4.800;2023-05-31T05:48:48;29.90;1.00
21646;DHT22;10984;45.712;4.800;2023-05-31T05:51:14;30.30;1.00
21646;DHT22;10984;45.712;4.800;2023-05-31T05:53:40;29.70;1.00
21646;DHT22;10984;45.712;4.800;2023-05-31T05:56:05;29.90;1.00
21646;DHT22;10984;45.712;4.800;2023-05-31T05:58:31;30.00;1.00
21646;DHT22;10984;45.712;4.800;2023-05-31T06:00:57;29.70;99.90
21646;DHT22;10984;45.712;4.800;2023-05-31T06:03:22;30.00;99.90
21646;DHT22;10984;45.712;4.800;2023-05-31T06:05:51;30.00;99.90
21646;DHT22;10984;45.712;4.800;2023-05-31T06:08:17;30.40;99.90
21646;DHT22;10984;45.712;4.800;2023-05-31T06:10:43;30.90;99.90
21646;DHT22;10984;45.712;4.800;2023-05-31T06:13:09;31.00;1.00
21646;DHT22;10984;45.712;4.800;2023-05-31T06:15:35;30.50;99.90
21646;DHT22;10984;45.712;4.800;2023-05-31T06:18:01;31.10;99.90
21646;DHT22;10984;45.712;4.800;2023-05-31T06:20:27;31.40;99.90
21646;DHT22;10984;45.712;4.800;2023-05-31T06:22:52;31.40;99.90
21646;DHT22;10984;45.712;4.800;2023-05-31T06:25:19;31.40;99.90
21646;DHT22;10984;45.712;4.800;2023-05-31T06:27:46;31.50;99.90
21646;DHT22;10984;45.712;4.800;2023-05-31T06:30:30;31.30;99.90
21646;DHT22;10984;45.712;4.800;2023-05-31T06:32:56;31.00;99.90
21646;DHT22;10984;45.712;4.800;2023-05-31T06:35:21;31.20;99.90
21646;DHT22;10984;45.712;4.800;2023-05-31T06:37:48;31.10;99.90
21646;DHT22;10984;45.712;4.800;2023-05-31T06:40:14;31.30;99.90
21646;DHT22;10984;45.712;4.800;2023-05-31T06:42:40;31.20;99.90
21646;DHT22;10984;45.712;4.800;2023-05-31T06:45:06;31.30;99.90
21646;DHT22;10984;45.712;4.800;2023-05-31T06:47:32;31.30;99.90
21646;DHT22;10984;45.712;4.800;2023-05-31T06:49:58;31.50;99.90
21646;DHT22;10984;45.712;4.800;2023-05-31T06:52:23;31.50;99.90
21646;DHT22;10984;45.712;4.800;2023-05-31T06:54:49;31.30;99.90
21646;DHT22;10984;45.712;4.800;2023-05-31T06:57:16;30.90;1.00
21646;DHT22;10984;45.712;4.800;2023-05-31T06:59:42;31.20;1.00
21646;DHT22;10984;45.712;4.800;2023-05-31T07:02:08;31.20;1.00
21646;DHT22;10984;45.712;4.800;2023-05-31T07:04:33;30.90;1.00
21646;DHT22;10984;45.712;4.800;2023-05-31T07:06:59;30.80;1.00
21646;DHT22;10984;45.712;4.800;2023-05-31T07:09:25;31.00;1.00
21646;DHT22;10984;45.712;4.800;2023-05-31T07:11:50;31.00;1.00
21646;DHT22;10984;45.712;4.800;2023-05-31T07:14:16;30.30;1.00
21646;DHT22;10984;45.712;4.800;2023-05-31T07:16:42;30.00;1.00
21646;DHT22;10984;45.712;4.800;2023-05-31T07:19:07;30.20;1.00
21646;DHT22;10984;45.712;4.800;2023-05-31T07:21:33;30.50;1.00
21646;DHT22;10984;45.712;4.800;2023-05-31T07:23:59;30.30;1.00
21646;DHT22;10984;45.712;4.800;2023-05-31T07:26:25;30.20;1.00
21646;DHT22;10984;45.712;4.800;2023-05-31T07:28:51;30.10;1.00
21646;DHT22;10984;45.712;4.800;2023-05-31T07:31:35;30.00;1.00
21646;DHT22;10984;45.712;4.800;2023-05-31T07:34:00;29.50;1.00
21646;DHT22;10984;45.712;4.800;2023-05-31T07:36:26;29.70;1.00
21646;DHT22;10984;45.712;4.800;2023-05-31T07:38:52;29.70;1.00
21646;DHT22;10984;45.712;4.800;2023-05-31T07:41:18;29.60;1.00
21646;DHT22;10984;45.712;4.800;2023-05-31T07:43:44;29.40;1.00
21646;DHT22;10984;45.712;4.800;2023-05-31T07:46:28;29.30;1.00
21646;DHT22;10984;45.712;4.800;2023-05-31T07:48:54;29.40;1.00
21646;DHT22;10984;45.712;4.800;2023-05-31T07:51:20;29.30;1.00
21646;DHT22;10984;45.712;4.800;2023-05-31T07:53:45;29.40;1.00
21646;DHT22;10984;45.712;4.800;2023-05-31T07:56:12;29.70;1.00
21646;DHT22;10984;45.712;4.800;2023-05-31T07:58:38;29.30;1.00
21646;DHT22;10984;45.712;4.800;2023-05-31T08:01:04;29.30;1.00
21646;DHT22;10984;45.712;4.800;2023-05-31T08:03:30;28.80;1.00
21646;DHT22;10984;45.712;4.800;2023-05-31T08:05:56;29.10;1.00
21646;DHT22;10984;45.712;4.800;2023-05-31T08:08:22;28.60;1.00
21646;DHT22;10984;45.712;4.800;2023-05-31T08:10:48;28.20;1.00
21646;DHT22;10984;45.712;4.800;2023-05-31T08:13:14;27.60;1.00
21646;DHT22;10984;45.712;4.800;2023-05-31T08:15:39;27.20;99.90
21646;DHT22;10984;45.712;4.800;2023-05-31T08:18:05;26.70;99.90
21646;DHT22;10984;45.712;4.800;2023-05-31T08:20:31;26.20;99.90
21646;DHT22;10984;45.712;4.800;2023-05-31T08:22:57;26.20;99.90
21646;DHT22;10984;45.712;4.800;2023-05-31T08:25:22;25.70;99.90
21646;DHT22;10984;45.712;4.800;2023-05-31T08:27:49;25.70;99.90
21646;DHT22;10984;45.712;4.800;2023-05-31T08:30:15;25.20;99.90
21646;DHT22;10984;45.712;4.800;2023-05-31T08:32:41;25.10;99.90
21646;DHT22;10984;45.712;4.800;2023-05-31T08:35:07;24.50;99.90
21646;DHT22;10984;45.712;4.800;2023-05-31T08:37:35;24.30;99.90
21646;DHT22;10984;45.712;4.800;2023-05-31T08:40:02;24.40;99.90
21646;DHT22;10984;45.712;4.800;2023-05-31T08:42:39;24.60;99.90
21646;DHT22;10984;45.712;4.800;2023-05-31T08:45:06;24.40;99.90
21646;DHT22;10984;45.712;4.800;2023-05-31T08:47:39;24.30;99.90
21646;DHT22;10984;45.712;4.800;2023-05-31T08:50:08;24.30;99.90
21646;DHT22;10984;45.712;4.800;2023-05-31T08:52:34;24.20;1.00
21646;DHT22;10984;45.712;4.800;2023-05-31T08:55:01;24.00;99.90
21646;DHT22;10984;45.712;4.800;2023-05-31T08:57:28;24.10;1.00
21646;DHT22;10984;45.712;4.800;2023-05-31T08:59:55;24.10;99.90
21646;DHT22;10984;45.712;4.800;2023-05-31T09:02:22;24.20;1.00
21646;DHT22;10984;45.712;4.800;2023-05-31T09:04:49;24.10;1.00
21646;DHT22;10984;45.712;4.800;2023-05-31T09:07:16;24.10;1.00
21646;DHT22;10984;45.712;4.800;2023-05-31T09:09:41;24.30;1.00
21646;DHT22;10984;45.712;4.800;2023-05-31T09:12:07;24.20;1.00
21646;DHT22;10984;45.712;4.800;2023-05-31T09:14:33;24.30;1.00
21646;DHT22;10984;45.712;4.800;2023-05-31T09:17:00;24.40;1.00
21646;DHT22;10984;45.712;4.800;2023-05-31T09:19:26;24.70;1.00
21646;DHT22;10984;45.712;4.800;2023-05-31T09:21:52;24.40;1.00
21646;DHT22;10984;45.712;4.800;2023-05-31T09:24:18;24.10;1.00
21646;DHT22;10984;45.712;4.800;2023-05-31T09:27:03;24.20;1.00
21646;DHT22;10984;45.712;4.800;2023-05-31T09:29:29;23.90;1.00
21646;DHT22;10984;45.712;4.800;2023-05-31T09:32:13;24.00;1.00
21646;DHT22;10984;45.712;4.800;2023-05-31T09:34:39;24.30;1.00
21646;DHT22;10984;45.712;4.800;2023-05-31T09:37:05;24.20;1.00
21646;DHT22;10984;45.712;4.800;2023-05-31T09:39:32;24.20;1.00
21646;DHT22;10984;45.712;4.800;2023-05-31T09:41:58;24.40;1.00
21646;DHT22;10984;45.712;4.800;2023-05-31T09:45:01;24.40;1.00
21646;DHT22;10984;45.712;4.800;2023-05-31T09:47:28;24.20;1.00
21646;DHT22;10984;45.712;4.800;2023-05-31T09:49:54;24.30;1.00
21646;DHT22;10984;45.712;4.800;2023-05-31T09:52:39;24.30;1.00
21646;DHT22;10984;45.712;4.800;2023-05-31T09:55:07;24.40;1.00
21646;DHT22;10984;45.712;4.800;2023-05-31T09:57:37;24.50;1.00
21646;DHT22;10984;45.712;4.800;2023-05-31T10:00:21;24.60;1.00
21646;DHT22;10984;45.712;4.800;2023-05-31T10:02:52;24.60;1.00
21646;DHT22;10984;45.712;4.800;2023-05-31T10:05:19;24.50;1.00
21646;DHT22;10984;45.712;4.800;2023-05-31T10:07:48;24.70;1.00
21646;DHT22;10984;45.712;4.800;2023-05-31T10:10:14;24.90;1.00
21646;DHT22;10984;45.712;4.800;2023-05-31T10:12:58;25.10;1.00
21646;DHT22;10984;45.712;4.800;2023-05-31T10:15:26;25.10;1.00
21646;DHT22;10984;45.712;4.800;2023-05-31T10:18:11;25.10;1.00
21646;DHT22;10984;45.712;4.800;2023-05-31T10:23:25;25.10;1.00
21646;DHT22;10984;45.712;4.800;2023-05-31T10:34:47;24.70;1.00
21646;DHT22;10984;45.712;4.800;2023-05-31T10:37:14;24.70;1.00
21646;DHT22;10984;45.712;4.800;2023-05-31T10:48:55;24.80;1.00
21646;DHT22;10984;45.712;4.800;2023-05-31T10:51:42;24.90;1.00
21646;DHT22;10984;45.712;4.800;2023-05-31T10:54:25;24.90;1.00
21646;DHT22;10984;45.712;4.800;2023-05-31T10:57:11;25.00;1.00
21646;DHT22;10984;45.712;4.800;2023-05-31T10:59:56;25.00;1.00
21646;DHT22;10984;45.712;4.800;2023-05-31T11:02:24;25.00;1.00
21646;DHT22;10984;45.712;4.800;2023-05-31T11:04:50;25.10;1.00
21646;DHT22;10984;45.712;4.800;2023-05-31T11:07:18;25.20;1.00
21646;DHT22;10984;45.712;4.800;2023-05-31T11:10:06;25.20;1.00
21646;DHT22;10984;45.712;4.800;2023-05-31T11:12:36;25.10;1.00
21646;DHT22;10984;45.712;4.800;2023-05-31T11:15:04;25.10;1.00
21646;DHT22;10984;45.712;4.800;2023-05-31T11:20:25;25.40;1.00
21646;DHT22;10984;45.712;4.800;2023-05-31T11:26:15;25.40;1.00
21646;DHT22;10984;45.712;4.800;2023-05-31T11:29:00;25.40;1.00
21646;DHT22;10984;45.712;4.800;2023-05-31T11:34:31;25.30;1.00
21646;DHT22;10984;45.712;4.800;2023-05-31T11:37:03;25.10;1.00
21646;DHT22;10984;45.712;4.800;2023-05-31T11:39:29;25.20;1.00
21646;DHT22;10984;45.712;4.800;2023-05-31T11:41:56;25.20;1.00
21646;DHT22;10984;45.712;4.800;2023-05-31T11:44:42;25.20;1.00
21646;DHT22;10984;45.712;4.800;2023-05-31T11:47:10;25.30;1.00
21646;DHT22;10984;45.712;4.800;2023-05-31T11:49:36;25.30;99.90
21646;DHT22;10984;45.712;4.800;2023-05-31T11:52:03;25.40;99.90
21646;DHT22;10984;45.712;4.800;2023-05-31T11:54:32;25.40;99.90
21646;DHT22;10984;45.712;4.800;2023-05-31T11:57:17;25.30;99.90
21646;DHT22;10984;45.712;4.800;2023-05-31T11:59:43;25.40;99.90
21646;DHT22;10984;45.712;4.800;2023-05-31T12:02:09;25.40;99.90
21646;DHT22;10984;45.712;4.800;2023-05-31T12:04:57;25.40;99.90
21646;DHT22;10984;45.712;4.800;2023-05-31T12:07:23;25.50;99.90
21646;DHT22;10984;45.712;4.800;2023-05-31T12:09:49;25.60;99.90
21646;DHT22;10984;45.712;4.800;2023-05-31T12:12:15;25.50;99.90
21646;DHT22;10984;45.712;4.800;2023-05-31T12:15:00;25.40;99.90
21646;DHT22;10984;45.712;4.800;2023-05-31T12:17:30;25.50;99.90
21646;DHT22;10984;45.712;4.800;2023-05-31T12:19:56;25.60;99.90
21646;DHT22;10984;45.712;4.800;2023-05-31T12:22:21;25.70;99.90
21646;DHT22;10984;45.712;4.800;2023-05-31T12:27:32;25.80;99.90
21646;DHT22;10984;45.712;4.800;2023-05-31T12:30:00;25.70;99.90
21646;DHT22;10984;45.712;4.800;2023-05-31T12:32:45;25.80;99.90
21646;DHT22;10984;45.712;4.800;2023-05-31T12:35:11;25.80;99.90
21646;DHT22;10984;45.712;4.800;2023-05-31T12:37:38;25.70;99.90
21646;DHT22;10984;45.712;4.800;2023-05-31T12:40:23;25.80;99.90
21646;DHT22;10984;45.712;4.800;2023-05-31T12:42:49;26.00;99.90
21646;DHT22;10984;45.712;4.800;2023-05-31T12:45:18;26.10;99.90
21646;DHT22;10984;45.712;4.800;2023-05-31T12:47:44;26.00;99.90
21646;DHT22;10984;45.712;4.800;2023-05-31T12:50:10;25.90;99.90
21646;DHT22;10984;45.712;4.800;2023-05-31T12:52:38;25.90;99.90
21646;DHT22;10984;45.712;4.800;2023-05-31T12:55:22;25.80;99.90
21646;DHT22;10984;45.712;4.800;2023-05-31T12:57:48;25.80;99.90
21646;DHT22;10984;45.712;4.800;2023-05-31T13:00:13;25.90;99.90
21646;DHT22;10984;45.712;4.800;2023-05-31T13:02:40;25.80;99.90
21646;DHT22;10984;45.712;4.800;2023-05-31T13:05:07;25.80;99.90
21646;DHT22;10984;45.712;4.800;2023-05-31T13:07:33;25.90;99.90
21646;DHT22;10984;45.712;4.800;2023-05-31T13:09:59;25.90;99.90
21646;DHT22;10984;45.712;4.800;2023-05-31T13:12:24;26.10;84.60
21646;DHT22;10984;45.712;4.800;2023-05-31T13:14:51;26.10;99.90
21646;DHT22;10984;45.712;4.800;2023-05-31T13:17:35;26.10;99.90
21646;DHT22;10984;45.712;4.800;2023-05-31T13:20:01;26.20;99.90
21646;DHT22;10984;45.712;4.800;2023-05-31T13:22:27;26.20;99.90
21646;DHT22;10984;45.712;4.800;2023-05-31T13:24:52;26.30;52.60
21646;DHT22;10984;45.712;4.800;2023-05-31T13:27:18;26.20;30.00
21646;DHT22;10984;45.712;4.800;2023-05-31T13:29:43;26.10;6.50
21646;DHT22;10984;45.712;4.800;2023-05-31T13:32:09;26.10;1.00
21646;DHT22;10984;45.712;4.800;2023-05-31T13:34:35;26.10;1.00
21646;DHT22;10984;45.712;4.800;2023-05-31T13:37:02;26.20;18.50
21646;DHT22;10984;45.712;4.800;2023-05-31T13:39:28;26.20;1.00
21646;DHT22;10984;45.712;4.800;2023-05-31T13:41:53;26.10;1.00
21646;DHT22;10984;45.712;4.800;2023-05-31T13:44:19;26.00;1.00
21646;DHT22;10984;45.712;4.800;2023-05-31T13:46:45;26.00;6.40
21646;DHT22;10984;45.712;4.800;2023-05-31T13:49:11;25.90;99.90
21646;DHT22;10984;45.712;4.800;2023-05-31T13:51:41;25.80;1.00
21646;DHT22;10984;45.712;4.800;2023-05-31T13:54:06;25.70;67.70
21646;DHT22;10984;45.712;4.800;2023-05-31T13:56:32;25.70;1.00
21646;DHT22;10984;45.712;4.800;2023-05-31T13:58:58;25.70;1.00
21646;DHT22;10984;45.712;4.800;2023-05-31T14:01:23;26.00;25.90
21646;DHT22;10984;45.712;4.800;2023-05-31T14:03:49;26.30;6.50
21646;DHT22;10984;45.712;4.800;2023-05-31T14:06:16;26.40;1.00
21646;DHT22;10984;45.712;4.800;2023-05-31T14:08:41;26.60;1.00
21646;DHT22;10984;45.712;4.800;2023-05-31T14:11:09;26.60;1.00
21646;DHT22;10984;45.712;4.800;2023-05-31T14:13:37;26.90;1.00
21646;DHT22;10984;45.712;4.800;2023-05-31T14:16:03;27.30;1.00
21646;DHT22;10984;45.712;4.800;2023-05-31T14:18:29;27.30;1.00
21646;DHT22;10984;45.712;4.800;2023-05-31T14:20:55;27.60;1.00
21646;DHT22;10984;45.712;4.800;2023-05-31T14:23:21;27.30;1.00
21646;DHT22;10984;45.712;4.800;2023-05-31T14:25:46;27.40;1.00
21646;DHT22;10984;45.712;4.800;2023-05-31T14:28:12;27.50;1.00
21646;DHT22;10984;45.712;4.800;2023-05-31T14:30:37;27.60;1.00
21646;DHT22;10984;45.712;4.800;2023-05-31T14:33:03;27.60;1.00
21646;DHT22;10984;45.712;4.800;2023-05-31T14:35:29;27.60;1.00
21646;DHT22;10984;45.712;4.800;2023-05-31T14:37:55;27.50;1.00
21646;DHT22;10984;45.712;4.800;2023-05-31T14:40:20;27.20;1.00
21646;DHT22;10984;45.712;4.800;2023-05-31T14:42:46;27.30;1.00
21646;DHT22;10984;45.712;4.800;2023-05-31T14:45:12;27.50;1.00
21646;DHT22;10984;45.712;4.800;2023-05-31T14:47:37;27.70;1.00
21646;DHT22;10984;45.712;4.800;2023-05-31T14:50:04;28.00;1.00
21646;DHT22;10984;45.712;4.800;2023-05-31T14:52:30;28.00;1.00
21646;DHT22;10984;45.712;4.800;2023-05-31T14:54:55;28.00;1.00
21646;DHT22;10984;45.712;4.800;2023-05-31T14:57:21;28.00;1.00
21646;DHT22;10984;45.712;4.800;2023-05-31T14:59:46;28.00;1.00
21646;DHT22;10984;45.712;4.800;2023-05-31T15:02:12;28.20;1.00
21646;DHT22;10984;45.712;4.800;2023-05-31T15:04:38;28.10;30.40
21646;DHT22;10984;45.712;4.800;2023-05-31T15:07:04;28.00;99.90
21646;DHT22;10984;45.712;4.800;2023-05-31T15:09:30;27.60;99.90
21646;DHT22;10984;45.712;4.800;2023-05-31T15:11:55;27.00;1.00
21646;DHT22;10984;45.712;4.800;2023-05-31T15:14:21;26.60;1.00
21646;DHT22;10984;45.712;4.800;2023-05-31T15:16:47;26.60;1.00
21646;DHT22;10984;45.712;4.800;2023-05-31T15:19:12;26.50;1.00
21646;DHT22;10984;45.712;4.800;2023-05-31T15:21:38;26.40;1.00
21646;DHT22;10984;45.712;4.800;2023-05-31T15:24:05;26.30;1.00
21646;DHT22;10984;45.712;4.800;2023-05-31T15:26:32;26.20;1.00
21646;DHT22;10984;45.712;4.800;2023-05-31T15:28:57;26.10;52.10
21646;DHT22;10984;45.712;4.800;2023-05-31T15:31:23;25.90;99.90
21646;DHT22;10984;45.712;4.800;2023-05-31T15:33:49;25.70;99.90
21646;DHT22;10984;45.712;4.800;2023-05-31T15:36:15;25.60;99.90
21646;DHT22;10984;45.712;4.800;2023-05-31T15:38:41;25.60;99.90
21646;DHT22;10984;45.712;4.800;2023-05-31T15:41:07;25.50;99.90
21646;DHT22;10984;45.712;4.800;2023-05-31T15:43:32;25.50;99.90
21646;DHT22;10984;45.712;4.800;2023-05-31T15:45:59;25.40;1.00
21646;DHT22;10984;45.712;4.800;2023-05-31T15:48:25;25.20;1.00
21646;DHT22;10984;45.712;4.800;2023-05-31T15:50:51;25.20;1.00
21646;DHT22;10984;45.712;4.800;2023-05-31T15:53:16;25.10;1.00
21646;DHT22;10984;45.712;4.800;2023-05-31T15:55:43;25.10;1.00
21646;DHT22;10984;45.712;4.800;2023-05-31T15:58:10;25.10;1.00
21646;DHT22;10984;45.712;4.800;2023-05-31T16:00:36;25.20;1.00
21646;DHT22;10984;45.712;4.800;2023-05-31T16:03:02;25.30;1.00
21646;DHT22;10984;45.712;4.800;2023-05-31T16:05:28;25.40;1.00
21646;DHT22;10984;45.712;4.800;2023-05-31T16:07:58;25.50;1.00
21646;DHT22;10984;45.712;4.800;2023-05-31T16:10:24;25.60;1.00
21646;DHT22;10984;45.712;4.800;2023-05-31T16:12:49;25.70;1.00
21646;DHT22;10984;45.712;4.800;2023-05-31T16:15:15;25.70;99.90
21646;DHT22;10984;45.712;4.800;2023-05-31T16:17:59;25.70;99.90
21646;DHT22;10984;45.712;4.800;2023-05-31T16:20:25;25.80;99.90
21646;DHT22;10984;45.712;4.800;2023-05-31T16:22:50;25.80;99.90
21646;DHT22;10984;45.712;4.800;2023-05-31T16:25:16;25.70;99.90